PWSweather.com
Personal Weather Stations
Station Observations
GRACELEHAN
The Grace C. Lehan Memorial Weather Station, West Hartford, CT 06107

The Grace C. Lehan Memorial Weather StationWest Hartford, CT 06107

Lat: 41.745629, Lon: -72.7443516

Elevation: 136

Station Type: Davis Vantage Pro2 Plus

Latest ConditionsUpdated 11:46:15 AM EDT Tuesday, Sep 25, 2018
Currently Today's Max Today's Min Today's Average
Temperature 53.7°F12.1°C 53.7°F12.1°C 50.1°F10.1°C 51.7°F10.9°C
Dew Point 52.9°F11.6°C 52.9°F11.6°C 46.5°F8.1°C 48.6°F9.2°C
Winds Calm Calm 5.0 mph -8.0 kmh - - 0.3 mph 0.5 kmh
Wind Gusts 4.0 mph6.4 kmh 8.0 mph12.9 kmh - -
Humidity 97% 97% 82% 89%
Pressure 30.38 in1028.8 mb 30.57 in1035.2 mb 30.38 in1028.8 mb -
Hour Temp Dew Point Humidity Winds Wind Gusts Pressure Precip Precip Rate Daily Precip Total
11:46 AM 53.7°F12.1°C 52.9°F11.6°C 97% Calm Calm 4.0 mph6.4 kmh 30.38 in1028.8 mb 0.26 in6.6 mm 0.30 in7.6 mm 0.66 in16.8 mm
11:44 AM 53.7°F12.1°C 52.9°F11.6°C 97% Calm Calm 4.0 mph6.4 kmh 30.38 in1028.8 mb 0.25 in6.4 mm 0.00 in0.0 mm 0.65 in16.5 mm
11:42 AM 53.7°F12.1°C 52.9°F11.6°C 97% Calm Calm 4.0 mph6.4 kmh 30.38 in1028.8 mb 0.25 in6.4 mm 0.30 in7.6 mm 0.65 in16.5 mm
11:40 AM 53.7°F12.1°C 52.9°F11.6°C 97% 2.0 mph NW3.2 kmh NW 4.0 mph6.4 kmh 30.38 in1028.8 mb 0.24 in6.1 mm 0.30 in7.6 mm 0.64 in16.3 mm
11:38 AM 53.7°F12.1°C 52.9°F11.6°C 97% 3.0 mph NNW4.8 kmh NNW 3.0 mph4.8 kmh 30.38 in1028.8 mb 0.23 in5.8 mm 0.00 in0.0 mm 0.63 in16.0 mm
11:36 AM 53.6°F12.0°C 52.8°F11.6°C 97% Calm Calm -- 30.38 in1028.8 mb 0.23 in5.8 mm 0.30 in7.6 mm 0.63 in16.0 mm
11:34 AM 53.6°F12.0°C 52.8°F11.6°C 97% Calm Calm -- 30.38 in1028.8 mb 0.22 in5.6 mm 0.00 in0.0 mm 0.62 in15.7 mm
11:30 AM 53.5°F11.9°C 52.7°F11.5°C 97% 1.0 mph NNW1.6 kmh NNW 3.0 mph4.8 kmh 30.38 in1028.8 mb 0.32 in8.1 mm 0.30 in7.6 mm 0.62 in15.7 mm
11:28 AM 53.4°F11.9°C 52.6°F11.4°C 97% Calm Calm 3.0 mph4.8 kmh 30.39 in1029.1 mb 0.31 in7.9 mm 0.00 in0.0 mm 0.61 in15.5 mm
11:26 AM 53.3°F11.8°C 52.5°F11.4°C 97% Calm Calm 3.0 mph4.8 kmh 30.39 in1029.1 mb 0.31 in7.9 mm 0.00 in0.0 mm 0.61 in15.5 mm
11:24 AM 53.3°F11.8°C 52.5°F11.4°C 97% Calm Calm 3.0 mph4.8 kmh 30.39 in1029.1 mb 0.31 in7.9 mm 0.30 in7.6 mm 0.61 in15.5 mm
11:22 AM 53.2°F11.8°C 52.4°F11.3°C 97% 2.0 mph N3.2 kmh N 3.0 mph4.8 kmh 30.39 in1029.1 mb 0.30 in7.6 mm 0.00 in0.0 mm 0.60 in15.2 mm
11:20 AM 53.2°F11.8°C 52.4°F11.3°C 97% Calm Calm 3.0 mph4.8 kmh 30.39 in1029.1 mb 0.30 in7.6 mm 0.30 in7.6 mm 0.60 in15.2 mm
11:18 AM 53.2°F11.8°C 52.4°F11.3°C 97% Calm Calm 3.0 mph4.8 kmh 30.39 in1029.1 mb 0.29 in7.4 mm 0.00 in0.0 mm 0.59 in15.0 mm
11:16 AM 53.1°F11.7°C 52.3°F11.3°C 97% Calm Calm 3.0 mph4.8 kmh 30.39 in1029.1 mb 0.29 in7.4 mm 0.00 in0.0 mm 0.59 in15.0 mm
11:14 AM 53.1°F11.7°C 52.3°F11.3°C 97% Calm Calm 3.0 mph4.8 kmh 30.39 in1029.1 mb 0.29 in7.4 mm 0.30 in7.6 mm 0.59 in15.0 mm
11:12 AM 53.1°F11.7°C 52.3°F11.3°C 97% Calm Calm 3.0 mph4.8 kmh 30.39 in1029.1 mb 0.28 in7.1 mm 0.30 in7.6 mm 0.58 in14.7 mm
11:10 AM 53.0°F11.7°C 52.2°F11.2°C 97% 1.0 mph NE1.6 kmh NE 3.0 mph4.8 kmh 30.39 in1029.1 mb 0.27 in6.9 mm 0.30 in7.6 mm 0.57 in14.5 mm
11:08 AM 53.0°F11.7°C 51.9°F11.1°C 96% Calm Calm 3.0 mph4.8 kmh 30.39 in1029.1 mb 0.26 in6.6 mm 0.30 in7.6 mm 0.56 in14.2 mm
11:06 AM 52.9°F11.6°C 51.8°F11.0°C 96% Calm Calm -- 30.39 in1029.1 mb 0.25 in6.4 mm 0.30 in7.6 mm 0.55 in14.0 mm
11:04 AM 52.9°F11.6°C 51.8°F11.0°C 96% Calm Calm -- 30.39 in1029.1 mb 0.24 in6.1 mm 0.30 in7.6 mm 0.54 in13.7 mm
11:02 AM 52.9°F11.6°C 51.8°F11.0°C 96% Calm Calm -- 30.39 in1029.1 mb 0.23 in5.8 mm 0.00 in0.0 mm 0.53 in13.5 mm
11:00 AM 52.8°F11.6°C 51.7°F10.9°C 96% Calm Calm 4.0 mph6.4 kmh 30.39 in1029.1 mb 0.30 in7.6 mm 0.01 in0.3 mm 0.53 in13.5 mm
10:58 AM 52.8°F11.6°C 51.7°F10.9°C 96% Calm Calm 4.0 mph6.4 kmh 30.39 in1029.1 mb 0.29 in7.4 mm 0.00 in0.0 mm 0.52 in13.2 mm
10:56 AM 52.7°F11.5°C 51.6°F10.9°C 96% Calm Calm 4.0 mph6.4 kmh 30.39 in1029.1 mb 0.29 in7.4 mm 0.60 in15.2 mm 0.52 in13.2 mm
10:54 AM 52.7°F11.5°C 51.6°F10.9°C 96% 4.0 mph NW6.4 kmh NW 4.0 mph6.4 kmh 30.39 in1029.1 mb 0.27 in6.9 mm 0.00 in0.0 mm 0.50 in12.7 mm
10:52 AM 52.7°F11.5°C 51.9°F11.1°C 97% Calm Calm 3.0 mph4.8 kmh 30.39 in1029.1 mb 0.27 in6.9 mm 0.30 in7.6 mm 0.50 in12.7 mm
10:50 AM 52.7°F11.5°C 51.9°F11.1°C 97% 2.0 mph N3.2 kmh N 3.0 mph4.8 kmh 30.40 in1029.5 mb 0.26 in6.6 mm 0.30 in7.6 mm 0.49 in12.4 mm
10:48 AM 52.7°F11.5°C 51.9°F11.1°C 97% Calm Calm 2.0 mph3.2 kmh 30.40 in1029.5 mb 0.25 in6.4 mm 0.30 in7.6 mm 0.48 in12.2 mm
10:46 AM 52.7°F11.5°C 51.9°F11.1°C 97% Calm Calm 2.0 mph3.2 kmh 30.40 in1029.5 mb 0.24 in6.1 mm 0.30 in7.6 mm 0.47 in11.9 mm
10:44 AM 52.6°F11.4°C 51.8°F11.0°C 97% 1.0 mph N1.6 kmh N 2.0 mph3.2 kmh 30.40 in1029.5 mb 0.23 in5.8 mm 0.00 in0.0 mm 0.46 in11.7 mm
10:42 AM 52.6°F11.4°C 51.8°F11.0°C 97% Calm Calm 2.0 mph3.2 kmh 30.40 in1029.5 mb 0.23 in5.8 mm 0.30 in7.6 mm 0.46 in11.7 mm
10:40 AM 52.5°F11.4°C 51.7°F10.9°C 97% Calm Calm 2.0 mph3.2 kmh 30.40 in1029.5 mb 0.22 in5.6 mm 0.30 in7.6 mm 0.45 in11.4 mm
10:38 AM 52.4°F11.3°C 51.6°F10.9°C 97% Calm Calm 2.0 mph3.2 kmh 30.40 in1029.5 mb 0.21 in5.3 mm 0.00 in0.0 mm 0.44 in11.2 mm
10:36 AM 52.4°F11.3°C 51.6°F10.9°C 97% Calm Calm 2.0 mph3.2 kmh 30.40 in1029.5 mb 0.21 in5.3 mm 0.30 in7.6 mm 0.44 in11.2 mm
10:34 AM 52.4°F11.3°C 51.6°F10.9°C 97% Calm Calm 2.0 mph3.2 kmh 30.40 in1029.5 mb 0.20 in5.1 mm 0.00 in0.0 mm 0.43 in10.9 mm
10:30 AM 52.3°F11.3°C 51.2°F10.7°C 96% Calm Calm 5.0 mph8.0 kmh 30.41 in1029.8 mb 0.22 in5.6 mm 0.00 in0.0 mm 0.43 in10.9 mm
10:28 AM 52.3°F11.3°C 51.2°F10.7°C 96% Calm Calm 5.0 mph8.0 kmh 30.41 in1029.8 mb 0.22 in5.6 mm 0.00 in0.0 mm 0.43 in10.9 mm
10:26 AM 52.2°F11.2°C 51.1°F10.6°C 96% Calm Calm 5.0 mph8.0 kmh 30.41 in1029.8 mb 0.22 in5.6 mm 0.30 in7.6 mm 0.43 in10.9 mm
10:24 AM 52.1°F11.2°C 51.0°F10.6°C 96% Calm Calm 5.0 mph8.0 kmh 30.41 in1029.8 mb 0.21 in5.3 mm 0.00 in0.0 mm 0.42 in10.7 mm
10:22 AM 52.1°F11.2°C 51.0°F10.6°C 96% Calm Calm 5.0 mph8.0 kmh 30.41 in1029.8 mb 0.21 in5.3 mm 0.30 in7.6 mm 0.42 in10.7 mm
10:20 AM 52.0°F11.1°C 50.9°F10.5°C 96% Calm Calm 5.0 mph8.0 kmh 30.41 in1029.8 mb 0.20 in5.1 mm 0.30 in7.6 mm 0.41 in10.4 mm
10:18 AM 52.0°F11.1°C 50.9°F10.5°C 96% Calm Calm 5.0 mph8.0 kmh 30.42 in1030.1 mb 0.19 in4.8 mm 0.30 in7.6 mm 0.40 in10.2 mm
10:16 AM 51.9°F11.1°C 50.8°F10.4°C 96% Calm Calm 5.0 mph8.0 kmh 30.42 in1030.1 mb 0.18 in4.6 mm 0.30 in7.6 mm 0.39 in9.9 mm
10:14 AM 51.9°F11.1°C 50.8°F10.4°C 96% Calm Calm 5.0 mph8.0 kmh 30.42 in1030.1 mb 0.17 in4.3 mm 0.30 in7.6 mm 0.38 in9.7 mm
10:12 AM 51.9°F11.1°C 50.8°F10.4°C 96% Calm Calm 5.0 mph8.0 kmh 30.42 in1030.1 mb 0.16 in4.1 mm 0.30 in7.6 mm 0.37 in9.4 mm
10:10 AM 51.8°F11.0°C 50.7°F10.4°C 96% Calm Calm 5.0 mph8.0 kmh 30.42 in1030.1 mb 0.15 in3.8 mm 0.30 in7.6 mm 0.36 in9.1 mm
10:08 AM 51.8°F11.0°C 50.7°F10.4°C 96% Calm Calm 5.0 mph8.0 kmh 30.42 in1030.1 mb 0.14 in3.6 mm 0.30 in7.6 mm 0.35 in8.9 mm
10:06 AM 51.7°F10.9°C 50.6°F10.3°C 96% Calm Calm 5.0 mph8.0 kmh 30.42 in1030.1 mb 0.13 in3.3 mm 0.30 in7.6 mm 0.34 in8.6 mm
10:04 AM 51.7°F10.9°C 50.6°F10.3°C 96% Calm Calm 5.0 mph8.0 kmh 30.42 in1030.1 mb 0.12 in3.0 mm 0.00 in0.0 mm 0.33 in8.4 mm
10:02 AM 51.7°F10.9°C 50.6°F10.3°C 96% Calm Calm 5.0 mph8.0 kmh 30.42 in1030.1 mb 0.12 in3.0 mm 0.00 in0.0 mm 0.33 in8.4 mm
10:00 AM 51.7°F10.9°C 50.6°F10.3°C 96% Calm Calm 5.0 mph8.0 kmh 30.42 in1030.1 mb 0.20 in5.1 mm 0.01 in0.3 mm 0.33 in8.4 mm
09:58 AM 51.7°F10.9°C 50.6°F10.3°C 96% Calm Calm 5.0 mph8.0 kmh 30.42 in1030.1 mb 0.19 in4.8 mm 0.00 in0.0 mm 0.32 in8.1 mm
09:56 AM 51.6°F10.9°C 50.5°F10.3°C 96% Calm Calm 5.0 mph8.0 kmh 30.42 in1030.1 mb 0.19 in4.8 mm 0.30 in7.6 mm 0.32 in8.1 mm
09:54 AM 51.6°F10.9°C 50.5°F10.3°C 96% Calm Calm 5.0 mph8.0 kmh 30.42 in1030.1 mb 0.18 in4.6 mm 0.30 in7.6 mm 0.31 in7.9 mm
09:52 AM 51.6°F10.9°C 50.5°F10.3°C 96% Calm Calm 5.0 mph8.0 kmh 30.42 in1030.1 mb 0.17 in4.3 mm 0.00 in0.0 mm 0.30 in7.6 mm
09:50 AM 51.6°F10.9°C 50.5°F10.3°C 96% Calm Calm 5.0 mph8.0 kmh 30.42 in1030.1 mb 0.17 in4.3 mm 0.30 in7.6 mm 0.30 in7.6 mm
09:48 AM 51.5°F10.8°C 50.4°F10.2°C 96% Calm Calm 5.0 mph8.0 kmh 30.42 in1030.1 mb 0.16 in4.1 mm 0.00 in0.0 mm 0.29 in7.4 mm
09:46 AM 51.5°F10.8°C 50.4°F10.2°C 96% 1.0 mph E1.6 kmh E 5.0 mph8.0 kmh 30.42 in1030.1 mb 0.16 in4.1 mm 0.30 in7.6 mm 0.29 in7.4 mm
09:44 AM 51.5°F10.8°C 50.4°F10.2°C 96% 2.0 mph NE3.2 kmh NE 5.0 mph8.0 kmh 30.42 in1030.1 mb 0.15 in3.8 mm 0.00 in0.0 mm 0.28 in7.1 mm
09:42 AM 51.5°F10.8°C 50.4°F10.2°C 96% 1.0 mph NE1.6 kmh NE 5.0 mph8.0 kmh 30.42 in1030.1 mb 0.15 in3.8 mm 0.30 in7.6 mm 0.28 in7.1 mm
09:40 AM 51.4°F10.8°C 50.3°F10.2°C 96% Calm Calm 3.0 mph4.8 kmh 30.43 in1030.5 mb 0.14 in3.6 mm 0.00 in0.0 mm 0.27 in6.9 mm
09:38 AM 51.4°F10.8°C 50.3°F10.2°C 96% Calm Calm 2.0 mph3.2 kmh 30.43 in1030.5 mb 0.14 in3.6 mm 0.30 in7.6 mm 0.27 in6.9 mm
09:36 AM 51.4°F10.8°C 50.3°F10.2°C 96% Calm Calm 2.0 mph3.2 kmh 30.43 in1030.5 mb 0.13 in3.3 mm 0.00 in0.0 mm 0.26 in6.6 mm
09:34 AM 51.4°F10.8°C 50.3°F10.2°C 96% Calm Calm 2.0 mph3.2 kmh 30.43 in1030.5 mb 0.13 in3.3 mm 0.00 in0.0 mm 0.26 in6.6 mm
09:30 AM 51.3°F10.7°C 50.2°F10.1°C 96% Calm Calm 6.0 mph9.7 kmh 30.44 in1030.8 mb 0.21 in5.3 mm 0.30 in7.6 mm 0.26 in6.6 mm
09:28 AM 51.3°F10.7°C 50.2°F10.1°C 96% Calm Calm 6.0 mph9.7 kmh 30.44 in1030.8 mb 0.20 in5.1 mm 0.00 in0.0 mm 0.25 in6.4 mm
09:26 AM 51.3°F10.7°C 50.2°F10.1°C 96% Calm Calm 6.0 mph9.7 kmh 30.43 in1030.5 mb 0.20 in5.1 mm 0.00 in0.0 mm 0.25 in6.4 mm
09:24 AM 51.3°F10.7°C 50.2°F10.1°C 96% Calm Calm 6.0 mph9.7 kmh 30.43 in1030.5 mb 0.20 in5.1 mm 0.00 in0.0 mm 0.25 in6.4 mm
09:22 AM 51.3°F10.7°C 50.2°F10.1°C 96% Calm Calm 6.0 mph9.7 kmh 30.43 in1030.5 mb 0.20 in5.1 mm 0.00 in0.0 mm 0.25 in6.4 mm
09:20 AM 51.3°F10.7°C 50.2°F10.1°C 96% Calm Calm 6.0 mph9.7 kmh 30.43 in1030.5 mb 0.20 in5.1 mm 0.30 in7.6 mm 0.25 in6.4 mm
09:18 AM 51.3°F10.7°C 50.2°F10.1°C 96% Calm Calm 6.0 mph9.7 kmh 30.43 in1030.5 mb 0.19 in4.8 mm 0.00 in0.0 mm 0.24 in6.1 mm
09:16 AM 51.3°F10.7°C 50.2°F10.1°C 96% Calm Calm 6.0 mph9.7 kmh 30.44 in1030.8 mb 0.19 in4.8 mm 0.00 in0.0 mm 0.24 in6.1 mm
09:14 AM 51.3°F10.7°C 50.2°F10.1°C 96% Calm Calm 6.0 mph9.7 kmh 30.44 in1030.8 mb 0.19 in4.8 mm 0.00 in0.0 mm 0.24 in6.1 mm
09:12 AM 51.2°F10.7°C 50.1°F10.1°C 96% 2.0 mph NNE3.2 kmh NNE 6.0 mph9.7 kmh 30.43 in1030.5 mb 0.19 in4.8 mm 0.00 in0.0 mm 0.24 in6.1 mm
09:10 AM 51.2°F10.7°C 50.1°F10.1°C 96% 3.0 mph N4.8 kmh N 6.0 mph9.7 kmh 30.43 in1030.5 mb 0.19 in4.8 mm 0.30 in7.6 mm 0.24 in6.1 mm
09:08 AM 51.2°F10.7°C 49.8°F9.9°C 95% Calm Calm 6.0 mph9.7 kmh 30.43 in1030.5 mb 0.18 in4.6 mm 0.00 in0.0 mm 0.23 in5.8 mm
09:06 AM 51.1°F10.6°C 50.0°F10.0°C 96% Calm Calm 5.0 mph8.0 kmh 30.43 in1030.5 mb 0.18 in4.6 mm 0.00 in0.0 mm 0.23 in5.8 mm
09:04 AM 51.1°F10.6°C 50.0°F10.0°C 96% Calm Calm 5.0 mph8.0 kmh 30.43 in1030.5 mb 0.18 in4.6 mm 0.00 in0.0 mm 0.23 in5.8 mm
09:02 AM 51.1°F10.6°C 50.0°F10.0°C 96% Calm Calm 2.0 mph3.2 kmh 30.43 in1030.5 mb 0.18 in4.6 mm 0.00 in0.0 mm 0.23 in5.8 mm
09:00 AM 51.0°F10.6°C 49.6°F9.8°C 95% Calm Calm 6.0 mph9.7 kmh 30.43 in1030.5 mb 0.20 in5.1 mm 0.01 in0.3 mm 0.23 in5.8 mm
08:58 AM 51.0°F10.6°C 49.6°F9.8°C 95% Calm Calm 6.0 mph9.7 kmh 30.43 in1030.5 mb 0.19 in4.8 mm 0.00 in0.0 mm 0.22 in5.6 mm
08:56 AM 51.0°F10.6°C 49.6°F9.8°C 95% Calm Calm 6.0 mph9.7 kmh 30.44 in1030.8 mb 0.19 in4.8 mm 0.30 in7.6 mm 0.22 in5.6 mm
08:54 AM 51.0°F10.6°C 49.6°F9.8°C 95% Calm Calm 6.0 mph9.7 kmh 30.43 in1030.5 mb 0.18 in4.6 mm 0.00 in0.0 mm 0.21 in5.3 mm
08:52 AM 51.0°F10.6°C 49.6°F9.8°C 95% Calm Calm 6.0 mph9.7 kmh 30.44 in1030.8 mb 0.18 in4.6 mm 0.00 in0.0 mm 0.21 in5.3 mm
08:50 AM 50.9°F10.5°C 49.5°F9.7°C 95% Calm Calm 6.0 mph9.7 kmh 30.44 in1030.8 mb 0.18 in4.6 mm 0.30 in7.6 mm 0.21 in5.3 mm
08:48 AM 50.9°F10.5°C 49.5°F9.7°C 95% Calm Calm 6.0 mph9.7 kmh 30.44 in1030.8 mb 0.17 in4.3 mm 0.00 in0.0 mm 0.20 in5.1 mm
08:46 AM 50.9°F10.5°C 49.5°F9.7°C 95% Calm Calm 6.0 mph9.7 kmh 30.44 in1030.8 mb 0.17 in4.3 mm 0.30 in7.6 mm 0.20 in5.1 mm
08:44 AM 50.8°F10.4°C 49.4°F9.7°C 95% Calm Calm 6.0 mph9.7 kmh 30.44 in1030.8 mb 0.16 in4.1 mm 0.00 in0.0 mm 0.19 in4.8 mm
08:42 AM 50.8°F10.4°C 49.4°F9.7°C 95% Calm Calm 6.0 mph9.7 kmh 30.44 in1030.8 mb 0.16 in4.1 mm 0.30 in7.6 mm 0.19 in4.8 mm
08:40 AM 50.8°F10.4°C 49.4°F9.7°C 95% Calm Calm 6.0 mph9.7 kmh 30.44 in1030.8 mb 0.15 in3.8 mm 0.30 in7.6 mm 0.18 in4.6 mm
08:38 AM 50.8°F10.4°C 49.4°F9.7°C 95% Calm Calm 6.0 mph9.7 kmh 30.44 in1030.8 mb 0.14 in3.6 mm 0.30 in7.6 mm 0.17 in4.3 mm
08:36 AM 50.8°F10.4°C 49.4°F9.7°C 95% 2.0 mph N3.2 kmh N 6.0 mph9.7 kmh 30.44 in1030.8 mb 0.13 in3.3 mm 0.00 in0.0 mm 0.16 in4.1 mm
08:34 AM 50.8°F10.4°C 49.4°F9.7°C 95% Calm Calm 6.0 mph9.7 kmh 30.44 in1030.8 mb 0.13 in3.3 mm 0.30 in7.6 mm 0.16 in4.1 mm
08:30 AM 50.8°F10.4°C 49.4°F9.7°C 95% Calm Calm 5.0 mph8.0 kmh 30.44 in1030.8 mb 0.11 in2.8 mm 0.30 in7.6 mm 0.14 in3.6 mm
08:28 AM 50.8°F10.4°C 49.4°F9.7°C 95% Calm Calm 5.0 mph8.0 kmh 30.44 in1030.8 mb 0.10 in2.5 mm 0.30 in7.6 mm 0.13 in3.3 mm
08:26 AM 50.8°F10.4°C 49.4°F9.7°C 95% 3.0 mph N4.8 kmh N 5.0 mph8.0 kmh 30.44 in1030.8 mb 0.09 in2.3 mm 0.30 in7.6 mm 0.12 in3.0 mm
08:24 AM 50.8°F10.4°C 49.4°F9.7°C 95% 3.0 mph N4.8 kmh N 5.0 mph8.0 kmh 30.44 in1030.8 mb 0.08 in2.0 mm 0.00 in0.0 mm 0.11 in2.8 mm
08:22 AM 50.7°F10.4°C 49.3°F9.6°C 95% Calm Calm 5.0 mph8.0 kmh 30.44 in1030.8 mb 0.08 in2.0 mm 0.00 in0.0 mm 0.11 in2.8 mm
08:20 AM 50.7°F10.4°C 49.3°F9.6°C 95% Calm Calm 5.0 mph8.0 kmh 30.45 in1031.2 mb 0.08 in2.0 mm 0.30 in7.6 mm 0.11 in2.8 mm
08:18 AM 50.7°F10.4°C 49.3°F9.6°C 95% Calm Calm 5.0 mph8.0 kmh 30.45 in1031.2 mb 0.07 in1.8 mm 0.30 in7.6 mm 0.10 in2.5 mm
08:16 AM 50.7°F10.4°C 49.3°F9.6°C 95% Calm Calm 5.0 mph8.0 kmh 30.45 in1031.2 mb 0.06 in1.5 mm 0.00 in0.0 mm 0.09 in2.3 mm
08:14 AM 50.7°F10.4°C 49.3°F9.6°C 95% Calm Calm 5.0 mph8.0 kmh 30.44 in1030.8 mb 0.06 in1.5 mm 0.30 in7.6 mm 0.09 in2.3 mm
08:12 AM 50.7°F10.4°C 49.3°F9.6°C 95% Calm Calm 5.0 mph8.0 kmh 30.44 in1030.8 mb 0.05 in1.3 mm 0.30 in7.6 mm 0.08 in2.0 mm
08:10 AM 50.6°F10.3°C 49.2°F9.6°C 95% 4.0 mph N6.4 kmh N 5.0 mph8.0 kmh 30.45 in1031.2 mb 0.04 in1.0 mm 0.00 in0.0 mm 0.07 in1.8 mm
08:08 AM 50.6°F10.3°C 49.2°F9.6°C 95% Calm Calm 5.0 mph8.0 kmh 30.44 in1030.8 mb 0.04 in1.0 mm 0.00 in0.0 mm 0.07 in1.8 mm
08:06 AM 50.6°F10.3°C 49.2°F9.6°C 95% Calm Calm 3.0 mph4.8 kmh 30.45 in1031.2 mb 0.04 in1.0 mm 0.30 in7.6 mm 0.07 in1.8 mm
08:04 AM 50.6°F10.3°C 49.2°F9.6°C 95% Calm Calm -- 30.45 in1031.2 mb 0.03 in0.8 mm 0.30 in7.6 mm 0.06 in1.5 mm
08:02 AM 50.6°F10.3°C 49.2°F9.6°C 95% Calm Calm -- 30.45 in1031.2 mb 0.02 in0.5 mm 0.00 in0.0 mm 0.05 in1.3 mm
08:00 AM 50.6°F10.3°C 49.2°F9.6°C 95% 1.0 mph NW1.6 kmh NW 7.0 mph11.3 kmh 30.45 in1031.2 mb 0.03 in0.8 mm 0.00 in0.0 mm 0.05 in1.3 mm
07:58 AM 50.5°F10.3°C 48.8°F9.3°C 94% Calm Calm 7.0 mph11.3 kmh 30.45 in1031.2 mb 0.03 in0.8 mm 0.00 in0.0 mm 0.05 in1.3 mm
07:56 AM 50.5°F10.3°C 48.8°F9.3°C 94% 2.0 mph N3.2 kmh N 7.0 mph11.3 kmh 30.45 in1031.2 mb 0.03 in0.8 mm 0.30 in7.6 mm 0.05 in1.3 mm
07:54 AM 50.5°F10.3°C 48.8°F9.3°C 94% Calm Calm 7.0 mph11.3 kmh 30.45 in1031.2 mb 0.02 in0.5 mm 0.00 in0.0 mm 0.04 in1.0 mm
07:52 AM 50.5°F10.3°C 48.8°F9.3°C 94% Calm Calm 7.0 mph11.3 kmh 30.45 in1031.2 mb 0.02 in0.5 mm 0.00 in0.0 mm 0.04 in1.0 mm
07:50 AM 50.5°F10.3°C 48.8°F9.3°C 94% Calm Calm 7.0 mph11.3 kmh 30.45 in1031.2 mb 0.02 in0.5 mm 0.00 in0.0 mm 0.04 in1.0 mm
07:48 AM 50.5°F10.3°C 48.8°F9.3°C 94% Calm Calm 7.0 mph11.3 kmh 30.45 in1031.2 mb 0.02 in0.5 mm 0.00 in0.0 mm 0.04 in1.0 mm
07:46 AM 50.4°F10.2°C 48.7°F9.3°C 94% Calm Calm 7.0 mph11.3 kmh 30.45 in1031.2 mb 0.02 in0.5 mm 0.00 in0.0 mm 0.04 in1.0 mm
07:44 AM 50.4°F10.2°C 48.7°F9.3°C 94% Calm Calm 7.0 mph11.3 kmh 30.45 in1031.2 mb 0.02 in0.5 mm 0.00 in0.0 mm 0.04 in1.0 mm
07:42 AM 50.4°F10.2°C 48.7°F9.3°C 94% Calm Calm 6.0 mph9.7 kmh 30.45 in1031.2 mb 0.02 in0.5 mm 0.00 in0.0 mm 0.04 in1.0 mm
07:40 AM 50.4°F10.2°C 48.7°F9.3°C 94% Calm Calm 6.0 mph9.7 kmh 30.45 in1031.2 mb 0.02 in0.5 mm 0.00 in0.0 mm 0.04 in1.0 mm
07:38 AM 50.4°F10.2°C 48.7°F9.3°C 94% 1.0 mph NW1.6 kmh NW 6.0 mph9.7 kmh 30.45 in1031.2 mb 0.02 in0.5 mm 0.30 in7.6 mm 0.04 in1.0 mm
07:36 AM 50.4°F10.2°C 48.7°F9.3°C 94% Calm Calm 6.0 mph9.7 kmh 30.45 in1031.2 mb 0.01 in0.3 mm 0.00 in0.0 mm 0.03 in0.8 mm
07:34 AM 50.4°F10.2°C 48.7°F9.3°C 94% Calm Calm 6.0 mph9.7 kmh 30.45 in1031.2 mb 0.01 in0.3 mm 0.00 in0.0 mm 0.03 in0.8 mm
07:30 AM 50.3°F10.2°C 48.6°F9.2°C 94% 2.0 mph NW3.2 kmh NW 6.0 mph9.7 kmh 30.45 in1031.2 mb 0.01 in0.3 mm 0.00 in0.0 mm 0.03 in0.8 mm
07:28 AM 50.3°F10.2°C 48.6°F9.2°C 94% Calm Calm 6.0 mph9.7 kmh 30.45 in1031.2 mb 0.01 in0.3 mm 0.00 in0.0 mm 0.03 in0.8 mm
07:26 AM 50.3°F10.2°C 48.6°F9.2°C 94% Calm Calm 6.0 mph9.7 kmh 30.44 in1030.8 mb 0.01 in0.3 mm 0.00 in0.0 mm 0.03 in0.8 mm
07:24 AM 50.3°F10.2°C 48.6°F9.2°C 94% Calm Calm 6.0 mph9.7 kmh 30.45 in1031.2 mb 0.01 in0.3 mm 0.00 in0.0 mm 0.03 in0.8 mm
07:22 AM 50.2°F10.1°C 48.5°F9.2°C 94% Calm Calm 6.0 mph9.7 kmh 30.45 in1031.2 mb 0.01 in0.3 mm 0.00 in0.0 mm 0.03 in0.8 mm
07:20 AM 50.2°F10.1°C 48.5°F9.2°C 94% Calm Calm 6.0 mph9.7 kmh 30.45 in1031.2 mb 0.01 in0.3 mm 0.00 in0.0 mm 0.03 in0.8 mm
07:18 AM 50.2°F10.1°C 48.5°F9.2°C 94% Calm Calm 6.0 mph9.7 kmh 30.44 in1030.8 mb 0.01 in0.3 mm 0.00 in0.0 mm 0.03 in0.8 mm
07:16 AM 50.3°F10.2°C 48.4°F9.1°C 93% Calm Calm 6.0 mph9.7 kmh 30.44 in1030.8 mb 0.01 in0.3 mm 0.00 in0.0 mm 0.03 in0.8 mm
07:14 AM 50.2°F10.1°C 48.3°F9.1°C 93% Calm Calm 6.0 mph9.7 kmh 30.44 in1030.8 mb 0.01 in0.3 mm 0.00 in0.0 mm 0.03 in0.8 mm
07:12 AM 50.2°F10.1°C 48.3°F9.1°C 93% 2.0 mph NE3.2 kmh NE 6.0 mph9.7 kmh 30.44 in1030.8 mb 0.01 in0.3 mm 0.00 in0.0 mm 0.03 in0.8 mm
07:10 AM 50.2°F10.1°C 48.3°F9.1°C 93% Calm Calm 6.0 mph9.7 kmh 30.45 in1031.2 mb 0.01 in0.3 mm 0.00 in0.0 mm 0.03 in0.8 mm
07:08 AM 50.1°F10.1°C 48.2°F9.0°C 93% Calm Calm 6.0 mph9.7 kmh 30.45 in1031.2 mb 0.01 in0.3 mm 0.00 in0.0 mm 0.03 in0.8 mm
07:06 AM 50.2°F10.1°C 48.3°F9.1°C 93% Calm Calm 6.0 mph9.7 kmh 30.45 in1031.2 mb 0.01 in0.3 mm 0.00 in0.0 mm 0.03 in0.8 mm
07:04 AM 50.2°F10.1°C 48.3°F9.1°C 93% 1.0 mph E1.6 kmh E 4.0 mph6.4 kmh 30.45 in1031.2 mb 0.01 in0.3 mm 0.00 in0.0 mm 0.03 in0.8 mm
07:02 AM 50.2°F10.1°C 48.3°F9.1°C 93% Calm Calm 2.0 mph3.2 kmh 30.45 in1031.2 mb 0.01 in0.3 mm 0.00 in0.0 mm 0.03 in0.8 mm
07:00 AM 50.3°F10.2°C 48.4°F9.1°C 93% 5.0 mph ENE8.0 kmh ENE 6.0 mph9.7 kmh 30.45 in1031.2 mb 0.03 in0.8 mm 0.00 in0.0 mm 0.03 in0.8 mm
06:58 AM 50.3°F10.2°C 48.4°F9.1°C 93% Calm Calm 6.0 mph9.7 kmh 30.45 in1031.2 mb 0.03 in0.8 mm 0.00 in0.0 mm 0.03 in0.8 mm
06:56 AM 50.3°F10.2°C 48.4°F9.1°C 93% Calm Calm 6.0 mph9.7 kmh 30.45 in1031.2 mb 0.03 in0.8 mm 0.00 in0.0 mm 0.03 in0.8 mm
06:54 AM 50.3°F10.2°C 48.1°F8.9°C 92% Calm Calm 6.0 mph9.7 kmh 30.45 in1031.2 mb 0.03 in0.8 mm 0.30 in7.6 mm 0.03 in0.8 mm
06:52 AM 50.3°F10.2°C 48.1°F8.9°C 92% Calm Calm 6.0 mph9.7 kmh 30.45 in1031.2 mb 0.02 in0.5 mm 0.00 in0.0 mm 0.02 in0.5 mm
06:50 AM 50.3°F10.2°C 48.1°F8.9°C 92% 5.0 mph E8.0 kmh E 6.0 mph9.7 kmh 30.45 in1031.2 mb 0.02 in0.5 mm 0.00 in0.0 mm 0.02 in0.5 mm
06:48 AM 50.3°F10.2°C 48.1°F8.9°C 92% Calm Calm 6.0 mph9.7 kmh 30.45 in1031.2 mb 0.02 in0.5 mm 0.00 in0.0 mm 0.02 in0.5 mm
06:46 AM 50.3°F10.2°C 48.1°F8.9°C 92% Calm Calm 6.0 mph9.7 kmh 30.45 in1031.2 mb 0.02 in0.5 mm 0.00 in0.0 mm 0.02 in0.5 mm
06:44 AM 50.4°F10.2°C 48.2°F9.0°C 92% Calm Calm 5.0 mph8.0 kmh 30.45 in1031.2 mb 0.02 in0.5 mm 0.00 in0.0 mm 0.02 in0.5 mm
06:42 AM 50.4°F10.2°C 48.2°F9.0°C 92% Calm Calm 5.0 mph8.0 kmh 30.45 in1031.2 mb 0.02 in0.5 mm 0.00 in0.0 mm 0.02 in0.5 mm
06:40 AM 50.4°F10.2°C 48.2°F9.0°C 92% Calm Calm 5.0 mph8.0 kmh 30.46 in1031.5 mb 0.02 in0.5 mm 0.00 in0.0 mm 0.02 in0.5 mm
06:38 AM 50.4°F10.2°C 48.2°F9.0°C 92% Calm Calm 5.0 mph8.0 kmh 30.46 in1031.5 mb 0.02 in0.5 mm 0.00 in0.0 mm 0.02 in0.5 mm
06:36 AM 50.4°F10.2°C 47.9°F8.8°C 91% Calm Calm 5.0 mph8.0 kmh 30.46 in1031.5 mb 0.02 in0.5 mm 0.00 in0.0 mm 0.02 in0.5 mm
06:34 AM 50.5°F10.3°C 48.0°F8.9°C 91% Calm Calm 5.0 mph8.0 kmh 30.46 in1031.5 mb 0.02 in0.5 mm 0.00 in0.0 mm 0.02 in0.5 mm
06:30 AM 50.5°F10.3°C 48.0°F8.9°C 91% 3.0 mph NE4.8 kmh NE 5.0 mph8.0 kmh 30.46 in1031.5 mb 0.02 in0.5 mm 0.00 in0.0 mm 0.02 in0.5 mm
06:28 AM 50.5°F10.3°C 48.0°F8.9°C 91% Calm Calm 5.0 mph8.0 kmh 30.46 in1031.5 mb 0.02 in0.5 mm 0.00 in0.0 mm 0.02 in0.5 mm
06:26 AM 50.5°F10.3°C 48.0°F8.9°C 91% Calm Calm 5.0 mph8.0 kmh 30.46 in1031.5 mb 0.02 in0.5 mm 0.30 in7.6 mm 0.02 in0.5 mm
06:24 AM 50.5°F10.3°C 48.0°F8.9°C 91% Calm Calm 5.0 mph8.0 kmh 30.46 in1031.5 mb 0.01 in0.3 mm 0.00 in0.0 mm 0.01 in0.3 mm
06:22 AM 50.6°F10.3°C 48.1°F8.9°C 91% Calm Calm 5.0 mph8.0 kmh 30.47 in1031.8 mb 0.01 in0.3 mm 0.00 in0.0 mm 0.01 in0.3 mm
06:20 AM 50.6°F10.3°C 47.8°F8.8°C 90% 1.0 mph NNE1.6 kmh NNE 5.0 mph8.0 kmh 30.47 in1031.8 mb 0.01 in0.3 mm 0.00 in0.0 mm 0.01 in0.3 mm
06:18 AM 50.6°F10.3°C 47.8°F8.8°C 90% Calm Calm 5.0 mph8.0 kmh 30.47 in1031.8 mb 0.01 in0.3 mm 0.00 in0.0 mm 0.01 in0.3 mm
06:16 AM 50.6°F10.3°C 47.8°F8.8°C 90% Calm Calm 5.0 mph8.0 kmh 30.47 in1031.8 mb 0.01 in0.3 mm 0.00 in0.0 mm 0.01 in0.3 mm
06:14 AM 50.7°F10.4°C 47.9°F8.8°C 90% Calm Calm 4.0 mph6.4 kmh 30.47 in1031.8 mb 0.01 in0.3 mm 0.00 in0.0 mm 0.01 in0.3 mm
06:12 AM 50.7°F10.4°C 47.9°F8.8°C 90% Calm Calm 4.0 mph6.4 kmh 30.47 in1031.8 mb 0.01 in0.3 mm 0.00 in0.0 mm 0.01 in0.3 mm
06:10 AM 50.8°F10.4°C 48.0°F8.9°C 90% Calm Calm 4.0 mph6.4 kmh 30.46 in1031.5 mb 0.01 in0.3 mm 0.00 in0.0 mm 0.01 in0.3 mm
06:08 AM 50.8°F10.4°C 47.7°F8.7°C 89% Calm Calm 4.0 mph6.4 kmh 30.46 in1031.5 mb 0.01 in0.3 mm 0.00 in0.0 mm 0.01 in0.3 mm
06:06 AM 50.8°F10.4°C 47.7°F8.7°C 89% Calm Calm 2.0 mph3.2 kmh 30.47 in1031.8 mb 0.01 in0.3 mm 0.00 in0.0 mm 0.01 in0.3 mm
06:04 AM 50.9°F10.5°C 47.8°F8.8°C 89% Calm Calm 2.0 mph3.2 kmh 30.47 in1031.8 mb 0.01 in0.3 mm 0.00 in0.0 mm 0.01 in0.3 mm
06:02 AM 50.9°F10.5°C 47.8°F8.8°C 89% Calm Calm -- 30.48 in1032.2 mb 0.01 in0.3 mm 0.00 in0.0 mm 0.01 in0.3 mm
05:58 AM 51.0°F10.6°C 47.9°F8.8°C 89% Calm Calm 4.0 mph6.4 kmh 30.48 in1032.2 mb 0.01 in0.3 mm 0.00 in0.0 mm 0.01 in0.3 mm
05:56 AM 51.0°F10.6°C 47.9°F8.8°C 89% Calm Calm 4.0 mph6.4 kmh 30.48 in1032.2 mb 0.01 in0.3 mm 0.00 in0.0 mm 0.01 in0.3 mm
05:54 AM 51.0°F10.6°C 47.6°F8.7°C 88% Calm Calm 4.0 mph6.4 kmh 30.48 in1032.2 mb 0.01 in0.3 mm 0.00 in0.0 mm 0.01 in0.3 mm
05:52 AM 51.0°F10.6°C 47.6°F8.7°C 88% Calm Calm 4.0 mph6.4 kmh 30.48 in1032.2 mb 0.01 in0.3 mm 0.00 in0.0 mm 0.01 in0.3 mm
05:50 AM 51.1°F10.6°C 47.7°F8.7°C 88% Calm Calm 4.0 mph6.4 kmh 30.48 in1032.2 mb 0.01 in0.3 mm 0.00 in0.0 mm 0.01 in0.3 mm
05:48 AM 51.1°F10.6°C 47.7°F8.7°C 88% Calm Calm 4.0 mph6.4 kmh 30.48 in1032.2 mb 0.01 in0.3 mm 0.00 in0.0 mm 0.01 in0.3 mm
05:46 AM 51.2°F10.7°C 47.8°F8.8°C 88% Calm Calm 4.0 mph6.4 kmh 30.48 in1032.2 mb 0.01 in0.3 mm 0.00 in0.0 mm 0.01 in0.3 mm
05:44 AM 51.2°F10.7°C 47.8°F8.8°C 88% Calm Calm 4.0 mph6.4 kmh 30.48 in1032.2 mb 0.01 in0.3 mm 0.00 in0.0 mm 0.01 in0.3 mm
05:42 AM 51.2°F10.7°C 47.5°F8.6°C 87% Calm Calm 4.0 mph6.4 kmh 30.48 in1032.2 mb 0.01 in0.3 mm 0.00 in0.0 mm 0.01 in0.3 mm
05:40 AM 51.2°F10.7°C 47.5°F8.6°C 87% Calm Calm 4.0 mph6.4 kmh 30.48 in1032.2 mb 0.01 in0.3 mm 0.30 in7.6 mm 0.01 in0.3 mm
05:38 AM 51.2°F10.7°C 47.5°F8.6°C 87% Calm Calm 4.0 mph6.4 kmh 30.48 in1032.2 mb 0.00 in0.0 mm 0.00 in0.0 mm 0.00 in0.0 mm
05:36 AM 51.2°F10.7°C 47.5°F8.6°C 87% Calm Calm 2.0 mph3.2 kmh 30.48 in1032.2 mb 0.00 in0.0 mm 0.00 in0.0 mm 0.00 in0.0 mm
05:34 AM 51.3°F10.7°C 47.6°F8.7°C 87% Calm Calm 2.0 mph3.2 kmh 30.48 in1032.2 mb 0.00 in0.0 mm 0.00 in0.0 mm 0.00 in0.0 mm
05:30 AM 51.3°F10.7°C 47.6°F8.7°C 87% Calm Calm 8.0 mph12.9 kmh 30.49 in1032.5 mb 0.00 in0.0 mm 0.00 in0.0 mm 0.00 in0.0 mm
05:28 AM 51.3°F10.7°C 47.6°F8.7°C 87% Calm Calm 8.0 mph12.9 kmh 30.49 in1032.5 mb 0.00 in0.0 mm 0.00 in0.0 mm 0.00 in0.0 mm
05:26 AM 51.3°F10.7°C 47.6°F8.7°C 87% Calm Calm 8.0 mph12.9 kmh 30.49 in1032.5 mb 0.00 in0.0 mm 0.00 in0.0 mm 0.00 in0.0 mm
05:24 AM 51.3°F10.7°C 47.6°F8.7°C 87% Calm Calm 7.0 mph11.3 kmh 30.49 in1032.5 mb 0.00 in0.0 mm 0.00 in0.0 mm 0.00 in0.0 mm
05:22 AM 51.3°F10.7°C 47.6°F8.7°C 87% Calm Calm 7.0 mph11.3 kmh 30.48 in1032.2 mb 0.00 in0.0 mm 0.00 in0.0 mm 0.00 in0.0 mm
05:20 AM 51.3°F10.7°C 47.3°F8.5°C 86% Calm Calm 6.0 mph9.7 kmh 30.48 in1032.2 mb 0.00 in0.0 mm 0.00 in0.0 mm 0.00 in0.0 mm
05:18 AM 51.3°F10.7°C 47.3°F8.5°C 86% Calm Calm 6.0 mph9.7 kmh 30.48 in1032.2 mb 0.00 in0.0 mm 0.00 in0.0 mm 0.00 in0.0 mm
05:16 AM 51.2°F10.7°C 47.2°F8.4°C 86% Calm Calm 6.0 mph9.7 kmh 30.48 in1032.2 mb 0.00 in0.0 mm 0.00 in0.0 mm 0.00 in0.0 mm
05:14 AM 51.3°F10.7°C 47.3°F8.5°C 86% Calm Calm 6.0 mph9.7 kmh 30.48 in1032.2 mb 0.00 in0.0 mm 0.00 in0.0 mm 0.00 in0.0 mm
05:12 AM 51.3°F10.7°C 47.3°F8.5°C 86% Calm Calm 6.0 mph9.7 kmh 30.48 in1032.2 mb 0.00 in0.0 mm 0.00 in0.0 mm 0.00 in0.0 mm
05:10 AM 51.3°F10.7°C 47.0°F8.3°C 85% Calm Calm 6.0 mph9.7 kmh 30.48 in1032.2 mb 0.00 in0.0 mm 0.00 in0.0 mm 0.00 in0.0 mm
05:08 AM 51.3°F10.7°C 47.0°F8.3°C 85% Calm Calm 6.0 mph9.7 kmh 30.48 in1032.2 mb 0.00 in0.0 mm 0.00 in0.0 mm 0.00 in0.0 mm
05:06 AM 51.3°F10.7°C 47.0°F8.3°C 85% Calm Calm 6.0 mph9.7 kmh 30.48 in1032.2 mb 0.00 in0.0 mm 0.00 in0.0 mm 0.00 in0.0 mm
05:04 AM 51.3°F10.7°C 47.0°F8.3°C 85% Calm Calm 6.0 mph9.7 kmh 30.48 in1032.2 mb 0.00 in0.0 mm 0.00 in0.0 mm 0.00 in0.0 mm
05:02 AM 51.3°F10.7°C 47.0°F8.3°C 85% Calm Calm 6.0 mph9.7 kmh 30.48 in1032.2 mb 0.00 in0.0 mm 0.00 in0.0 mm 0.00 in0.0 mm
05:00 AM 51.3°F10.7°C 47.0°F8.3°C 85% Calm Calm 4.0 mph6.4 kmh 30.48 in1032.2 mb 0.00 in0.0 mm 0.00 in0.0 mm 0.00 in0.0 mm
04:58 AM 51.3°F10.7°C 47.0°F8.3°C 85% Calm Calm 4.0 mph6.4 kmh 30.48 in1032.2 mb 0.00 in0.0 mm 0.00 in0.0 mm 0.00 in0.0 mm
04:56 AM 51.3°F10.7°C 47.0°F8.3°C 85% 3.0 mph SE4.8 kmh SE 4.0 mph6.4 kmh 30.48 in1032.2 mb 0.00 in0.0 mm 0.00 in0.0 mm 0.00 in0.0 mm
04:54 AM 51.3°F10.7°C 47.0°F8.3°C 85% Calm Calm 4.0 mph6.4 kmh 30.48 in1032.2 mb 0.00 in0.0 mm 0.00 in0.0 mm 0.00 in0.0 mm
04:52 AM 51.3°F10.7°C 47.0°F8.3°C 85% Calm Calm 4.0 mph6.4 kmh 30.48 in1032.2 mb 0.00 in0.0 mm 0.00 in0.0 mm 0.00 in0.0 mm
04:50 AM 51.2°F10.7°C 46.9°F8.3°C 85% 1.0 mph NW1.6 kmh NW 4.0 mph6.4 kmh 30.48 in1032.2 mb 0.00 in0.0 mm 0.00 in0.0 mm 0.00 in0.0 mm
04:48 AM 51.2°F10.7°C 46.9°F8.3°C 85% Calm Calm 3.0 mph4.8 kmh 30.48 in1032.2 mb 0.00 in0.0 mm 0.00 in0.0 mm 0.00 in0.0 mm
04:46 AM 51.2°F10.7°C 46.9°F8.3°C 85% Calm Calm 3.0 mph4.8 kmh 30.48 in1032.2 mb 0.00 in0.0 mm 0.00 in0.0 mm 0.00 in0.0 mm
04:44 AM 51.2°F10.7°C 46.5°F8.1°C 84% Calm Calm 3.0 mph4.8 kmh 30.48 in1032.2 mb 0.00 in0.0 mm 0.00 in0.0 mm 0.00 in0.0 mm
04:42 AM 51.2°F10.7°C 46.5°F8.1°C 84% Calm Calm 3.0 mph4.8 kmh 30.48 in1032.2 mb 0.00 in0.0 mm 0.00 in0.0 mm 0.00 in0.0 mm
04:40 AM 51.2°F10.7°C 46.5°F8.1°C 84% Calm Calm 3.0 mph4.8 kmh 30.48 in1032.2 mb 0.00 in0.0 mm 0.00 in0.0 mm 0.00 in0.0 mm
04:38 AM 51.3°F10.7°C 46.6°F8.1°C 84% Calm Calm 2.0 mph3.2 kmh 30.48 in1032.2 mb 0.00 in0.0 mm 0.00 in0.0 mm 0.00 in0.0 mm
04:36 AM 51.3°F10.7°C 46.6°F8.1°C 84% Calm Calm 2.0 mph3.2 kmh 30.48 in1032.2 mb 0.00 in0.0 mm 0.00 in0.0 mm 0.00 in0.0 mm
04:34 AM 51.3°F10.7°C 46.6°F8.1°C 84% Calm Calm 2.0 mph3.2 kmh 30.48 in1032.2 mb 0.00 in0.0 mm 0.00 in0.0 mm 0.00 in0.0 mm
04:30 AM 51.3°F10.7°C 46.6°F8.1°C 84% Calm Calm 4.0 mph6.4 kmh 30.48 in1032.2 mb 0.00 in0.0 mm 0.00 in0.0 mm 0.00 in0.0 mm
04:28 AM 51.4°F10.8°C 46.7°F8.2°C 84% Calm Calm 4.0 mph6.4 kmh 30.48 in1032.2 mb 0.00 in0.0 mm 0.00 in0.0 mm 0.00 in0.0 mm
04:26 AM 51.4°F10.8°C 46.7°F8.2°C 84% Calm Calm 4.0 mph6.4 kmh 30.48 in1032.2 mb 0.00 in0.0 mm 0.00 in0.0 mm 0.00 in0.0 mm
04:24 AM 51.4°F10.8°C 46.7°F8.2°C 84% Calm Calm 4.0 mph6.4 kmh 30.48 in1032.2 mb 0.00 in0.0 mm 0.00 in0.0 mm 0.00 in0.0 mm
04:22 AM 51.4°F10.8°C 46.7°F8.2°C 84% Calm Calm 4.0 mph6.4 kmh 30.48 in1032.2 mb 0.00 in0.0 mm 0.00 in0.0 mm 0.00 in0.0 mm
04:20 AM 51.4°F10.8°C 46.7°F8.2°C 84% Calm Calm 4.0 mph6.4 kmh 30.48 in1032.2 mb 0.00 in0.0 mm 0.00 in0.0 mm 0.00 in0.0 mm
04:18 AM 51.4°F10.8°C 46.7°F8.2°C 84% Calm Calm 4.0 mph6.4 kmh 30.48 in1032.2 mb 0.00 in0.0 mm 0.00 in0.0 mm 0.00 in0.0 mm
04:16 AM 51.4°F10.8°C 46.7°F8.2°C 84% Calm Calm 4.0 mph6.4 kmh 30.48 in1032.2 mb 0.00 in0.0 mm 0.00 in0.0 mm 0.00 in0.0 mm
04:14 AM 51.5°F10.8°C 46.8°F8.2°C 84% Calm Calm 4.0 mph6.4 kmh 30.48 in1032.2 mb 0.00 in0.0 mm 0.00 in0.0 mm 0.00 in0.0 mm
04:12 AM 51.5°F10.8°C 46.8°F8.2°C 84% Calm Calm 3.0 mph4.8 kmh 30.48 in1032.2 mb 0.00 in0.0 mm 0.00 in0.0 mm 0.00 in0.0 mm
04:10 AM 51.5°F10.8°C 46.8°F8.2°C 84% Calm Calm 3.0 mph4.8 kmh 30.48 in1032.2 mb 0.00 in0.0 mm 0.00 in0.0 mm 0.00 in0.0 mm
04:08 AM 51.5°F10.8°C 46.8°F8.2°C 84% Calm Calm 3.0 mph4.8 kmh 30.48 in1032.2 mb 0.00 in0.0 mm 0.00 in0.0 mm 0.00 in0.0 mm
04:06 AM 51.5°F10.8°C 46.8°F8.2°C 84% Calm Calm 3.0 mph4.8 kmh 30.48 in1032.2 mb 0.00 in0.0 mm 0.00 in0.0 mm 0.00 in0.0 mm
04:04 AM 51.5°F10.8°C 46.8°F8.2°C 84% Calm Calm 3.0 mph4.8 kmh 30.48 in1032.2 mb 0.00 in0.0 mm 0.00 in0.0 mm 0.00 in0.0 mm
04:02 AM 51.5°F10.8°C 46.8°F8.2°C 84% 3.0 mph NE4.8 kmh NE 3.0 mph4.8 kmh 30.49 in1032.5 mb 0.00 in0.0 mm 0.00 in0.0 mm 0.00 in0.0 mm
04:00 AM 51.6°F10.9°C 46.9°F8.3°C 84% Calm Calm 7.0 mph11.3 kmh 30.49 in1032.5 mb 0.00 in0.0 mm 0.00 in0.0 mm 0.00 in0.0 mm
03:58 AM 51.6°F10.9°C 46.9°F8.3°C 84% 2.0 mph ENE3.2 kmh ENE 7.0 mph11.3 kmh 30.49 in1032.5 mb 0.00 in0.0 mm 0.00 in0.0 mm 0.00 in0.0 mm
03:56 AM 51.6°F10.9°C 46.9°F8.3°C 84% Calm Calm 7.0 mph11.3 kmh 30.48 in1032.2 mb 0.00 in0.0 mm 0.00 in0.0 mm 0.00 in0.0 mm
03:54 AM 51.6°F10.9°C 46.9°F8.3°C 84% 2.0 mph ENE3.2 kmh ENE 7.0 mph11.3 kmh 30.48 in1032.2 mb 0.00 in0.0 mm 0.00 in0.0 mm 0.00 in0.0 mm
03:52 AM 51.6°F10.9°C 46.9°F8.3°C 84% Calm Calm 7.0 mph11.3 kmh 30.48 in1032.2 mb 0.00 in0.0 mm 0.00 in0.0 mm 0.00 in0.0 mm
03:50 AM 51.7°F10.9°C 47.0°F8.3°C 84% Calm Calm 7.0 mph11.3 kmh 30.49 in1032.5 mb 0.00 in0.0 mm 0.00 in0.0 mm 0.00 in0.0 mm
03:48 AM 51.7°F10.9°C 47.0°F8.3°C 84% Calm Calm 7.0 mph11.3 kmh 30.49 in1032.5 mb 0.00 in0.0 mm 0.00 in0.0 mm 0.00 in0.0 mm
03:46 AM 51.7°F10.9°C 47.0°F8.3°C 84% Calm Calm 4.0 mph6.4 kmh 30.49 in1032.5 mb 0.00 in0.0 mm 0.00 in0.0 mm 0.00 in0.0 mm
03:44 AM 51.7°F10.9°C 47.0°F8.3°C 84% Calm Calm 4.0 mph6.4 kmh 30.50 in1032.8 mb 0.00 in0.0 mm 0.00 in0.0 mm 0.00 in0.0 mm
03:42 AM 51.7°F10.9°C 47.0°F8.3°C 84% Calm Calm 3.0 mph4.8 kmh 30.50 in1032.8 mb 0.00 in0.0 mm 0.00 in0.0 mm 0.00 in0.0 mm
03:40 AM 51.7°F10.9°C 47.0°F8.3°C 84% Calm Calm 3.0 mph4.8 kmh 30.50 in1032.8 mb 0.00 in0.0 mm 0.00 in0.0 mm 0.00 in0.0 mm
03:38 AM 51.7°F10.9°C 47.0°F8.3°C 84% Calm Calm 3.0 mph4.8 kmh 30.50 in1032.8 mb 0.00 in0.0 mm 0.00 in0.0 mm 0.00 in0.0 mm
03:36 AM 51.8°F11.0°C 47.1°F8.4°C 84% Calm Calm 3.0 mph4.8 kmh 30.50 in1032.8 mb 0.00 in0.0 mm 0.00 in0.0 mm 0.00 in0.0 mm
03:34 AM 51.8°F11.0°C 47.1°F8.4°C 84% Calm Calm 1.0 mph1.6 kmh 30.50 in1032.8 mb 0.00 in0.0 mm 0.00 in0.0 mm 0.00 in0.0 mm
03:30 AM 51.8°F11.0°C 47.1°F8.4°C 84% Calm Calm 4.0 mph6.4 kmh 30.50 in1032.8 mb 0.00 in0.0 mm 0.00 in0.0 mm 0.00 in0.0 mm
03:28 AM 51.8°F11.0°C 47.1°F8.4°C 84% Calm Calm 4.0 mph6.4 kmh 30.50 in1032.8 mb 0.00 in0.0 mm 0.00 in0.0 mm 0.00 in0.0 mm
03:26 AM 51.9°F11.1°C 47.2°F8.4°C 84% Calm Calm 4.0 mph6.4 kmh 30.50 in1032.8 mb 0.00 in0.0 mm 0.00 in0.0 mm 0.00 in0.0 mm
03:24 AM 51.9°F11.1°C 47.2°F8.4°C 84% 1.0 mph ENE1.6 kmh ENE 4.0 mph6.4 kmh 30.50 in1032.8 mb 0.00 in0.0 mm 0.00 in0.0 mm 0.00 in0.0 mm
03:22 AM 51.9°F11.1°C 47.2°F8.4°C 84% Calm Calm 3.0 mph4.8 kmh 30.50 in1032.8 mb 0.00 in0.0 mm 0.00 in0.0 mm 0.00 in0.0 mm
03:20 AM 51.9°F11.1°C 47.2°F8.4°C 84% Calm Calm 3.0 mph4.8 kmh 30.50 in1032.8 mb 0.00 in0.0 mm 0.00 in0.0 mm 0.00 in0.0 mm
03:18 AM 51.9°F11.1°C 47.2°F8.4°C 84% Calm Calm 3.0 mph4.8 kmh 30.50 in1032.8 mb 0.00 in0.0 mm 0.00 in0.0 mm 0.00 in0.0 mm
03:16 AM 51.9°F11.1°C 47.2°F8.4°C 84% Calm Calm 3.0 mph4.8 kmh 30.50 in1032.8 mb 0.00 in0.0 mm 0.00 in0.0 mm 0.00 in0.0 mm
03:14 AM 51.9°F11.1°C 47.2°F8.4°C 84% Calm Calm 3.0 mph4.8 kmh 30.50 in1032.8 mb 0.00 in0.0 mm 0.00 in0.0 mm 0.00 in0.0 mm
03:12 AM 51.9°F11.1°C 47.2°F8.4°C 84% Calm Calm 3.0 mph4.8 kmh 30.51 in1033.2 mb 0.00 in0.0 mm 0.00 in0.0 mm 0.00 in0.0 mm
03:10 AM 51.9°F11.1°C 47.2°F8.4°C 84% Calm Calm 3.0 mph4.8 kmh 30.51 in1033.2 mb 0.00 in0.0 mm 0.00 in0.0 mm 0.00 in0.0 mm
03:08 AM 52.0°F11.1°C 47.3°F8.5°C 84% Calm Calm 3.0 mph4.8 kmh 30.51 in1033.2 mb 0.00 in0.0 mm 0.00 in0.0 mm 0.00 in0.0 mm
03:06 AM 52.0°F11.1°C 47.3°F8.5°C 84% Calm Calm 1.0 mph1.6 kmh 30.51 in1033.2 mb 0.00 in0.0 mm 0.00 in0.0 mm 0.00 in0.0 mm
03:04 AM 52.0°F11.1°C 47.3°F8.5°C 84% Calm Calm 1.0 mph1.6 kmh 30.51 in1033.2 mb 0.00 in0.0 mm 0.00 in0.0 mm 0.00 in0.0 mm
03:02 AM 52.0°F11.1°C 47.3°F8.5°C 84% Calm Calm -- 30.51 in1033.2 mb 0.00 in0.0 mm 0.00 in0.0 mm 0.00 in0.0 mm
03:00 AM 52.0°F11.1°C 47.3°F8.5°C 84% Calm Calm 3.0 mph4.8 kmh 30.51 in1033.2 mb 0.00 in0.0 mm 0.00 in0.0 mm 0.00 in0.0 mm
02:58 AM 52.0°F11.1°C 47.3°F8.5°C 84% Calm Calm 3.0 mph4.8 kmh 30.51 in1033.2 mb 0.00 in0.0 mm 0.00 in0.0 mm 0.00 in0.0 mm
02:56 AM 52.1°F11.2°C 47.4°F8.6°C 84% Calm Calm 3.0 mph4.8 kmh 30.51 in1033.2 mb 0.00 in0.0 mm 0.00 in0.0 mm 0.00 in0.0 mm
02:54 AM 52.1°F11.2°C 47.4°F8.6°C 84% Calm Calm 2.0 mph3.2 kmh 30.51 in1033.2 mb 0.00 in0.0 mm 0.00 in0.0 mm 0.00 in0.0 mm
02:52 AM 52.1°F11.2°C 47.4°F8.6°C 84% Calm Calm 2.0 mph3.2 kmh 30.51 in1033.2 mb 0.00 in0.0 mm 0.00 in0.0 mm 0.00 in0.0 mm
02:50 AM 52.1°F11.2°C 47.4°F8.6°C 84% Calm Calm 2.0 mph3.2 kmh 30.52 in1033.5 mb 0.00 in0.0 mm 0.00 in0.0 mm 0.00 in0.0 mm
02:48 AM 52.1°F11.2°C 47.4°F8.6°C 84% Calm Calm 2.0 mph3.2 kmh 30.52 in1033.5 mb 0.00 in0.0 mm 0.00 in0.0 mm 0.00 in0.0 mm
02:46 AM 52.2°F11.2°C 47.5°F8.6°C 84% Calm Calm 2.0 mph3.2 kmh 30.52 in1033.5 mb 0.00 in0.0 mm 0.00 in0.0 mm 0.00 in0.0 mm
02:44 AM 52.2°F11.2°C 47.5°F8.6°C 84% Calm Calm 2.0 mph3.2 kmh 30.52 in1033.5 mb 0.00 in0.0 mm 0.00 in0.0 mm 0.00 in0.0 mm
02:42 AM 52.2°F11.2°C 47.5°F8.6°C 84% Calm Calm 2.0 mph3.2 kmh 30.52 in1033.5 mb 0.00 in0.0 mm 0.00 in0.0 mm 0.00 in0.0 mm
02:40 AM 52.3°F11.3°C 47.6°F8.7°C 84% 1.0 mph NE1.6 kmh NE 2.0 mph3.2 kmh 30.53 in1033.9 mb 0.00 in0.0 mm 0.00 in0.0 mm 0.00 in0.0 mm
02:38 AM 52.3°F11.3°C 47.6°F8.7°C 84% Calm Calm 1.0 mph1.6 kmh 30.53 in1033.9 mb 0.00 in0.0 mm 0.00 in0.0 mm 0.00 in0.0 mm
02:36 AM 52.3°F11.3°C 47.6°F8.7°C 84% Calm Calm 1.0 mph1.6 kmh 30.53 in1033.9 mb 0.00 in0.0 mm 0.00 in0.0 mm 0.00 in0.0 mm
02:34 AM 52.3°F11.3°C 47.6°F8.7°C 84% Calm Calm 1.0 mph1.6 kmh 30.53 in1033.9 mb 0.00 in0.0 mm 0.00 in0.0 mm 0.00 in0.0 mm
02:30 AM 52.4°F11.3°C 47.7°F8.7°C 84% Calm Calm 4.0 mph6.4 kmh 30.53 in1033.9 mb 0.00 in0.0 mm 0.00 in0.0 mm 0.00 in0.0 mm
02:28 AM 52.4°F11.3°C 47.7°F8.7°C 84% Calm Calm 4.0 mph6.4 kmh 30.53 in1033.9 mb 0.00 in0.0 mm 0.00 in0.0 mm 0.00 in0.0 mm
02:26 AM 52.4°F11.3°C 47.7°F8.7°C 84% Calm Calm 4.0 mph6.4 kmh 30.53 in1033.9 mb 0.00 in0.0 mm 0.00 in0.0 mm 0.00 in0.0 mm
02:24 AM 52.4°F11.3°C 47.7°F8.7°C 84% Calm Calm 4.0 mph6.4 kmh 30.53 in1033.9 mb 0.00 in0.0 mm 0.00 in0.0 mm 0.00 in0.0 mm
02:22 AM 52.4°F11.3°C 47.7°F8.7°C 84% Calm Calm 4.0 mph6.4 kmh 30.53 in1033.9 mb 0.00 in0.0 mm 0.00 in0.0 mm 0.00 in0.0 mm
02:20 AM 52.4°F11.3°C 47.7°F8.7°C 84% Calm Calm 4.0 mph6.4 kmh 30.54 in1034.2 mb 0.00 in0.0 mm 0.00 in0.0 mm 0.00 in0.0 mm
02:18 AM 52.4°F11.3°C 47.4°F8.6°C 83% Calm Calm 4.0 mph6.4 kmh 30.54 in1034.2 mb 0.00 in0.0 mm 0.00 in0.0 mm 0.00 in0.0 mm
02:16 AM 52.4°F11.3°C 47.4°F8.6°C 83% Calm Calm 4.0 mph6.4 kmh 30.54 in1034.2 mb 0.00 in0.0 mm 0.00 in0.0 mm 0.00 in0.0 mm
02:14 AM 52.4°F11.3°C 47.4°F8.6°C 83% 1.0 mph NE1.6 kmh NE 3.0 mph4.8 kmh 30.54 in1034.2 mb 0.00 in0.0 mm 0.00 in0.0 mm 0.00 in0.0 mm
02:12 AM 52.4°F11.3°C 47.4°F8.6°C 83% Calm Calm 3.0 mph4.8 kmh 30.54 in1034.2 mb 0.00 in0.0 mm 0.00 in0.0 mm 0.00 in0.0 mm
02:10 AM 52.4°F11.3°C 47.4°F8.6°C 83% Calm Calm 3.0 mph4.8 kmh 30.54 in1034.2 mb 0.00 in0.0 mm 0.00 in0.0 mm 0.00 in0.0 mm
02:08 AM 52.4°F11.3°C 47.4°F8.6°C 83% Calm Calm 3.0 mph4.8 kmh 30.54 in1034.2 mb 0.00 in0.0 mm 0.00 in0.0 mm 0.00 in0.0 mm
02:06 AM 52.5°F11.4°C 47.8°F8.8°C 84% 2.0 mph ENE3.2 kmh ENE 3.0 mph4.8 kmh 30.54 in1034.2 mb 0.00 in0.0 mm 0.00 in0.0 mm 0.00 in0.0 mm
02:04 AM 52.5°F11.4°C 47.5°F8.6°C 83% Calm Calm 3.0 mph4.8 kmh 30.54 in1034.2 mb 0.00 in0.0 mm 0.00 in0.0 mm 0.00 in0.0 mm
02:02 AM 52.5°F11.4°C 47.5°F8.6°C 83% 2.0 mph ENE3.2 kmh ENE 3.0 mph4.8 kmh 30.54 in1034.2 mb 0.00 in0.0 mm 0.00 in0.0 mm 0.00 in0.0 mm
02:00 AM 52.5°F11.4°C 47.5°F8.6°C 83% Calm Calm 4.0 mph6.4 kmh 30.55 in1034.5 mb 0.00 in0.0 mm 0.00 in0.0 mm 0.00 in0.0 mm
01:58 AM 52.5°F11.4°C 47.5°F8.6°C 83% Calm Calm 4.0 mph6.4 kmh 30.54 in1034.2 mb 0.00 in0.0 mm 0.00 in0.0 mm 0.00 in0.0 mm
01:56 AM 52.5°F11.4°C 47.5°F8.6°C 83% Calm Calm 4.0 mph6.4 kmh 30.54 in1034.2 mb 0.00 in0.0 mm 0.00 in0.0 mm 0.00 in0.0 mm
01:54 AM 52.5°F11.4°C 47.5°F8.6°C 83% Calm Calm 4.0 mph6.4 kmh 30.54 in1034.2 mb 0.00 in0.0 mm 0.00 in0.0 mm 0.00 in0.0 mm
01:52 AM 52.5°F11.4°C 47.5°F8.6°C 83% 1.0 mph NE1.6 kmh NE 4.0 mph6.4 kmh 30.54 in1034.2 mb 0.00 in0.0 mm 0.00 in0.0 mm 0.00 in0.0 mm
01:50 AM 52.5°F11.4°C 47.5°F8.6°C 83% Calm Calm 4.0 mph6.4 kmh 30.54 in1034.2 mb 0.00 in0.0 mm 0.00 in0.0 mm 0.00 in0.0 mm
01:48 AM 52.6°F11.4°C 47.6°F8.7°C 83% 1.0 mph NE1.6 kmh NE 4.0 mph6.4 kmh 30.54 in1034.2 mb 0.00 in0.0 mm 0.00 in0.0 mm 0.00 in0.0 mm
01:46 AM 52.6°F11.4°C 47.6°F8.7°C 83% 1.0 mph NE1.6 kmh NE 4.0 mph6.4 kmh 30.54 in1034.2 mb 0.00 in0.0 mm 0.00 in0.0 mm 0.00 in0.0 mm
01:44 AM 52.6°F11.4°C 47.6°F8.7°C 83% Calm Calm 4.0 mph6.4 kmh 30.54 in1034.2 mb 0.00 in0.0 mm 0.00 in0.0 mm 0.00 in0.0 mm
01:42 AM 52.6°F11.4°C 47.6°F8.7°C 83% Calm Calm 4.0 mph6.4 kmh 30.54 in1034.2 mb 0.00 in0.0 mm 0.00 in0.0 mm 0.00 in0.0 mm
01:40 AM 52.6°F11.4°C 47.6°F8.7°C 83% Calm Calm 4.0 mph6.4 kmh 30.54 in1034.2 mb 0.00 in0.0 mm 0.00 in0.0 mm 0.00 in0.0 mm
01:38 AM 52.6°F11.4°C 47.6°F8.7°C 83% Calm Calm 4.0 mph6.4 kmh 30.55 in1034.5 mb 0.00 in0.0 mm 0.00 in0.0 mm 0.00 in0.0 mm
01:36 AM 52.6°F11.4°C 47.6°F8.7°C 83% Calm Calm 4.0 mph6.4 kmh 30.54 in1034.2 mb 0.00 in0.0 mm 0.00 in0.0 mm 0.00 in0.0 mm
01:34 AM 52.6°F11.4°C 47.6°F8.7°C 83% Calm Calm 4.0 mph6.4 kmh 30.55 in1034.5 mb 0.00 in0.0 mm 0.00 in0.0 mm 0.00 in0.0 mm
01:30 AM 52.7°F11.5°C 47.7°F8.7°C 83% Calm Calm 5.0 mph8.0 kmh 30.55 in1034.5 mb 0.00 in0.0 mm 0.00 in0.0 mm 0.00 in0.0 mm
01:28 AM 52.7°F11.5°C 47.7°F8.7°C 83% Calm Calm 5.0 mph8.0 kmh 30.55 in1034.5 mb 0.00 in0.0 mm 0.00 in0.0 mm 0.00 in0.0 mm
01:26 AM 52.7°F11.5°C 47.7°F8.7°C 83% Calm Calm 5.0 mph8.0 kmh 30.55 in1034.5 mb 0.00 in0.0 mm 0.00 in0.0 mm 0.00 in0.0 mm
01:24 AM 52.7°F11.5°C 47.7°F8.7°C 83% Calm Calm 5.0 mph8.0 kmh 30.55 in1034.5 mb 0.00 in0.0 mm 0.00 in0.0 mm 0.00 in0.0 mm
01:22 AM 52.7°F11.5°C 47.7°F8.7°C 83% Calm Calm 5.0 mph8.0 kmh 30.55 in1034.5 mb 0.00 in0.0 mm 0.00 in0.0 mm 0.00 in0.0 mm
01:20 AM 52.7°F11.5°C 47.7°F8.7°C 83% Calm Calm 5.0 mph8.0 kmh 30.55 in1034.5 mb 0.00 in0.0 mm 0.00 in0.0 mm 0.00 in0.0 mm
01:18 AM 52.7°F11.5°C 47.7°F8.7°C 83% 5.0 mph ENE8.0 kmh ENE 5.0 mph8.0 kmh 30.55 in1034.5 mb 0.00 in0.0 mm 0.00 in0.0 mm 0.00 in0.0 mm
01:16 AM 52.8°F11.6°C 47.8°F8.8°C 83% Calm Calm 3.0 mph4.8 kmh 30.55 in1034.5 mb 0.00 in0.0 mm 0.00 in0.0 mm 0.00 in0.0 mm
01:14 AM 52.8°F11.6°C 47.8°F8.8°C 83% 1.0 mph NE1.6 kmh NE 3.0 mph4.8 kmh 30.55 in1034.5 mb 0.00 in0.0 mm 0.00 in0.0 mm 0.00 in0.0 mm
01:12 AM 52.7°F11.5°C 47.7°F8.7°C 83% Calm Calm 3.0 mph4.8 kmh 30.55 in1034.5 mb 0.00 in0.0 mm 0.00 in0.0 mm 0.00 in0.0 mm
01:10 AM 52.8°F11.6°C 47.8°F8.8°C 83% Calm Calm 3.0 mph4.8 kmh 30.56 in1034.9 mb 0.00 in0.0 mm 0.00 in0.0 mm 0.00 in0.0 mm
01:08 AM 52.8°F11.6°C 47.8°F8.8°C 83% Calm Calm 3.0 mph4.8 kmh 30.55 in1034.5 mb 0.00 in0.0 mm 0.00 in0.0 mm 0.00 in0.0 mm
01:06 AM 52.8°F11.6°C 47.8°F8.8°C 83% Calm Calm 3.0 mph4.8 kmh 30.55 in1034.5 mb 0.00 in0.0 mm 0.00 in0.0 mm 0.00 in0.0 mm
01:04 AM 52.8°F11.6°C 47.8°F8.8°C 83% Calm Calm 3.0 mph4.8 kmh 30.55 in1034.5 mb 0.00 in0.0 mm 0.00 in0.0 mm 0.00 in0.0 mm
01:02 AM 52.8°F11.6°C 47.8°F8.8°C 83% Calm Calm 3.0 mph4.8 kmh 30.55 in1034.5 mb 0.00 in0.0 mm 0.00 in0.0 mm 0.00 in0.0 mm
01:00 AM 52.8°F11.6°C 47.8°F8.8°C 83% Calm Calm 4.0 mph6.4 kmh 30.55 in1034.5 mb 0.00 in0.0 mm 0.00 in0.0 mm 0.00 in0.0 mm
12:58 AM 52.8°F11.6°C 47.8°F8.8°C 83% Calm Calm 4.0 mph6.4 kmh 30.55 in1034.5 mb 0.00 in0.0 mm 0.00 in0.0 mm 0.00 in0.0 mm
12:56 AM 52.8°F11.6°C 47.8°F8.8°C 83% Calm Calm 4.0 mph6.4 kmh 30.55 in1034.5 mb 0.00 in0.0 mm 0.00 in0.0 mm 0.00 in0.0 mm
12:54 AM 52.8°F11.6°C 47.8°F8.8°C 83% Calm Calm 4.0 mph6.4 kmh 30.55 in1034.5 mb 0.00 in0.0 mm 0.00 in0.0 mm 0.00 in0.0 mm
12:52 AM 52.8°F11.6°C 47.8°F8.8°C 83% Calm Calm 4.0 mph6.4 kmh 30.55 in1034.5 mb 0.00 in0.0 mm 0.00 in0.0 mm 0.00 in0.0 mm
12:50 AM 52.8°F11.6°C 47.8°F8.8°C 83% Calm Calm 4.0 mph6.4 kmh 30.56 in1034.9 mb 0.00 in0.0 mm 0.00 in0.0 mm 0.00 in0.0 mm
12:48 AM 52.8°F11.6°C 47.8°F8.8°C 83% 3.0 mph N4.8 kmh N 4.0 mph6.4 kmh 30.55 in1034.5 mb 0.00 in0.0 mm 0.00 in0.0 mm 0.00 in0.0 mm
12:46 AM 52.8°F11.6°C 47.8°F8.8°C 83% Calm Calm 4.0 mph6.4 kmh 30.55 in1034.5 mb 0.00 in0.0 mm 0.00 in0.0 mm 0.00 in0.0 mm
12:44 AM 52.9°F11.6°C 47.9°F8.8°C 83% Calm Calm 4.0 mph6.4 kmh 30.56 in1034.9 mb 0.00 in0.0 mm 0.00 in0.0 mm 0.00 in0.0 mm
12:42 AM 52.9°F11.6°C 47.9°F8.8°C 83% Calm Calm 4.0 mph6.4 kmh 30.55 in1034.5 mb 0.00 in0.0 mm 0.00 in0.0 mm 0.00 in0.0 mm
12:40 AM 52.8°F11.6°C 47.8°F8.8°C 83% Calm Calm -- 30.55 in1034.5 mb 0.00 in0.0 mm 0.00 in0.0 mm 0.00 in0.0 mm
12:38 AM 52.8°F11.6°C 47.8°F8.8°C 83% Calm Calm -- 30.55 in1034.5 mb 0.00 in0.0 mm 0.00 in0.0 mm 0.00 in0.0 mm
12:36 AM 52.9°F11.6°C 47.9°F8.8°C 83% Calm Calm -- 30.55 in1034.5 mb 0.00 in0.0 mm 0.00 in0.0 mm 0.00 in0.0 mm
12:34 AM 52.9°F11.6°C 47.9°F8.8°C 83% Calm Calm -- 30.55 in1034.5 mb 0.00 in0.0 mm 0.00 in0.0 mm 0.00 in0.0 mm
12:32 AM 52.8°F11.6°C 47.8°F8.8°C 83% Calm Calm -- 30.55 in1034.5 mb 0.00 in0.0 mm 0.00 in0.0 mm 0.00 in0.0 mm
12:30 AM 52.9°F11.6°C 47.9°F8.8°C 83% Calm Calm 4.0 mph6.4 kmh 30.55 in1034.5 mb 0.00 in0.0 mm 0.00 in0.0 mm 0.00 in0.0 mm
12:28 AM 52.9°F11.6°C 47.9°F8.8°C 83% Calm Calm 4.0 mph6.4 kmh 30.55 in1034.5 mb 0.00 in0.0 mm 0.00 in0.0 mm 0.00 in0.0 mm
12:26 AM 52.9°F11.6°C 47.9°F8.8°C 83% Calm Calm 4.0 mph6.4 kmh 30.55 in1034.5 mb 0.00 in0.0 mm 0.00 in0.0 mm 0.00 in0.0 mm
12:24 AM 52.9°F11.6°C 47.9°F8.8°C 83% Calm Calm 3.0 mph4.8 kmh 30.56 in1034.9 mb 0.00 in0.0 mm 0.00 in0.0 mm 0.00 in0.0 mm
12:22 AM 52.9°F11.6°C 47.9°F8.8°C 83% Calm Calm 1.0 mph1.6 kmh 30.56 in1034.9 mb 0.00 in0.0 mm 0.00 in0.0 mm 0.00 in0.0 mm
12:20 AM 52.9°F11.6°C 47.6°F8.7°C 82% Calm Calm 1.0 mph1.6 kmh 30.56 in1034.9 mb 0.00 in0.0 mm 0.00 in0.0 mm 0.00 in0.0 mm
12:18 AM 52.9°F11.6°C 47.6°F8.7°C 82% Calm Calm 1.0 mph1.6 kmh 30.56 in1034.9 mb 0.00 in0.0 mm 0.00 in0.0 mm 0.00 in0.0 mm
12:16 AM 52.9°F11.6°C 47.6°F8.7°C 82% Calm Calm 1.0 mph1.6 kmh 30.56 in1034.9 mb 0.00 in0.0 mm 0.00 in0.0 mm 0.00 in0.0 mm
12:14 AM 52.9°F11.6°C 47.6°F8.7°C 82% Calm Calm 1.0 mph1.6 kmh 30.56 in1034.9 mb 0.00 in0.0 mm 0.00 in0.0 mm 0.00 in0.0 mm
12:12 AM 52.9°F11.6°C 47.6°F8.7°C 82% Calm Calm 1.0 mph1.6 kmh 30.56 in1034.9 mb 0.00 in0.0 mm 0.00 in0.0 mm 0.00 in0.0 mm
12:10 AM 52.9°F11.6°C 47.6°F8.7°C 82% Calm Calm 1.0 mph1.6 kmh 30.56 in1034.9 mb 0.00 in0.0 mm 0.00 in0.0 mm 0.00 in0.0 mm
12:08 AM 52.9°F11.6°C 47.6°F8.7°C 82% Calm Calm 1.0 mph1.6 kmh 30.56 in1034.9 mb 0.00 in0.0 mm 0.00 in0.0 mm 0.00 in0.0 mm
12:06 AM 52.9°F11.6°C 47.6°F8.7°C 82% Calm Calm 1.0 mph1.6 kmh 30.57 in1035.2 mb 0.00 in0.0 mm 0.00 in0.0 mm 0.00 in0.0 mm
12:04 AM 52.9°F11.6°C 47.6°F8.7°C 82% Calm Calm 1.0 mph1.6 kmh 30.57 in1035.2 mb 0.00 in0.0 mm 0.00 in0.0 mm 0.00 in0.0 mm
12:02 AM 52.9°F11.6°C 47.6°F8.7°C 82% Calm Calm -- 30.56 in1034.9 mb 0.00 in0.0 mm 0.00 in0.0 mm 0.00 in0.0 mm